Time;durP1;ratioP1;P1;durP2;ratioP2;P2;SDS_P1;SDS_P2;PMS_P1;PMS_P2;Temp;Humidity;BMP_temperature;BMP_pressure;BME280_temperature;BME280_humidity;BME280_pressure;Samples;Min_cycle;Max_cycle;Signal;HPM_P1;HPM_P2
2021/12/02 00:01:46;;;;;;;2.33;1.10;;;;;;;2.94;100.00;94214.19;5032013;28;24984;-74
2021/12/02 00:04:12;;;;;;;2.40;1.00;;;;;;;2.97;100.00;94221.69;5032115;28;24456;-75
2021/12/02 00:06:39;;;;;;;2.05;0.73;;;;;;;2.96;100.00;94209.78;5031836;28;24435;-75
2021/12/02 00:09:06;;;;;;;2.25;0.90;;;;;;;2.96;100.00;94201.31;5031984;28;25020;-75
2021/12/02 00:11:34;;;;;;;3.30;0.90;;;;;;;2.91;100.00;94219.47;5031856;28;24419;-73
2021/12/02 00:14:07;;;;;;;3.50;0.95;;;;;;;2.99;100.00;94221.59;5031717;28;24428;-75
2021/12/02 00:16:37;;;;;;;2.47;0.85;;;;;;;3.08;100.00;94218.50;5031789;28;24527;-75
2021/12/02 00:22:01;;;;;;;3.40;0.70;;;;;;;3.15;100.00;94210.38;4932086;29;24502;-74
2021/12/02 00:24:34;;;;;;;3.40;1.00;;;;;;;3.18;100.00;94216.22;5008607;28;25027;-75
2021/12/02 00:27:04;;;;;;;2.20;0.90;;;;;;;3.13;100.00;94212.19;5031454;28;24431;-75
2021/12/02 00:29:33;;;;;;;2.58;0.98;;;;;;;3.01;100.00;94205.25;5031780;28;24992;-75
2021/12/02 00:32:03;;;;;;;2.13;0.82;;;;;;;2.99;100.00;94216.47;5031552;28;24420;-74
2021/12/02 00:34:30;;;;;;;2.55;0.77;;;;;;;2.94;100.00;94209.06;5031132;28;24416;-74
2021/12/02 00:36:58;;;;;;;3.28;0.95;;;;;;;3.00;100.00;94211.25;5030767;28;24446;-74
2021/12/02 00:39:26;;;;;;;1.42;0.60;;;;;;;3.08;100.00;94203.97;5031636;28;24493;-74
2021/12/02 00:41:53;;;;;;;2.28;0.80;;;;;;;3.09;100.00;94209.91;5031496;28;24427;-75
2021/12/02 00:44:21;;;;;;;1.38;0.60;;;;;;;3.07;100.00;94215.09;5031359;28;24426;-75
2021/12/02 00:46:47;;;;;;;4.20;0.90;;;;;;;3.11;100.00;94208.91;5030935;28;24452;-75
2021/12/02 00:49:17;;;;;;;1.42;0.50;;;;;;;3.14;100.00;94213.84;5031556;28;24427;-74
2021/12/02 00:51:46;;;;;;;1.75;0.70;;;;;;;3.08;100.00;94214.22;5030866;28;24424;-75
2021/12/02 00:54:14;;;;;;;0.95;0.60;;;;;;;3.11;100.00;94205.50;5031073;28;24424;-75
2021/12/02 00:56:41;;;;;;;1.50;0.60;;;;;;;3.15;100.00;94207.84;5030769;28;24517;-74
2021/12/02 00:59:09;;;;;;;2.10;0.73;;;;;;;3.15;100.00;94196.75;5030803;28;24821;-73
2021/12/02 01:01:38;;;;;;;3.00;0.93;;;;;;;3.18;100.00;94200.88;5031021;28;24428;-75
2021/12/02 01:04:08;;;;;;;1.77;0.90;;;;;;;3.19;100.00;94199.94;5030760;28;24456;-75
2021/12/02 01:06:34;;;;;;;2.57;0.80;;;;;;;3.21;100.00;94201.50;5030807;28;24512;-75
2021/12/02 01:09:01;;;;;;;2.45;1.02;;;;;;;3.04;100.00;94202.53;5030974;28;24490;-75
2021/12/02 01:11:28;;;;;;;1.33;0.82;;;;;;;2.97;100.00;94213.19;5030849;28;24416;-74
2021/12/02 01:13:54;;;;;;;3.08;0.80;;;;;;;2.87;100.00;94208.59;5030792;28;24482;-74
2021/12/02 01:16:22;;;;;;;2.42;0.85;;;;;;;2.83;100.00;94216.53;5030327;28;24416;-74
2021/12/02 01:18:50;;;;;;;2.38;0.88;;;;;;;2.74;100.00;94220.44;5030450;28;24454;-75
2021/12/02 01:21:19;;;;;;;5.30;0.88;;;;;;;2.67;100.00;94222.53;5030775;28;24431;-75
2021/12/02 01:23:50;;;;;;;2.22;1.00;;;;;;;2.63;100.00;94222.78;5030566;28;24433;-75
2021/12/02 01:26:18;;;;;;;3.25;0.88;;;;;;;2.58;100.00;94224.78;5030072;28;24965;-74
2021/12/02 01:28:45;;;;;;;1.98;0.70;;;;;;;2.52;100.00;94227.66;5030600;28;25167;-74
2021/12/02 01:31:13;;;;;;;2.28;0.60;;;;;;;2.53;100.00;94235.25;5030374;28;24434;-75
2021/12/02 01:33:40;;;;;;;1.48;0.57;;;;;;;2.46;100.00;94233.97;5030659;28;24457;-74
2021/12/02 01:36:08;;;;;;;2.72;1.00;;;;;;;2.43;100.00;94240.03;5029982;28;24443;-75
2021/12/02 01:38:35;;;;;;;4.20;0.87;;;;;;;2.40;100.00;94239.41;5030290;28;25008;-75
2021/12/02 01:41:03;;;;;;;1.83;0.63;;;;;;;2.42;100.00;94238.41;5030374;28;24431;-75
2021/12/02 01:43:46;;;;;;;2.05;0.80;;;;;;;2.50;100.00;94237.16;5030362;28;24408;-75
2021/12/02 01:46:15;;;;;;;1.23;0.57;;;;;;;2.41;100.00;94238.47;5029442;28;24423;-74
2021/12/02 01:48:43;;;;;;;0.95;0.55;;;;;;;2.43;100.00;94239.22;5030288;28;25002;-75
2021/12/02 01:51:11;;;;;;;1.73;0.70;;;;;;;2.45;100.00;94239.13;5030374;28;24422;-74
2021/12/02 01:53:41;;;;;;;2.60;0.80;;;;;;;2.39;100.00;94243.69;5030310;28;25032;-74
2021/12/02 01:56:10;;;;;;;2.40;0.80;;;;;;;2.38;100.00;94246.34;5029749;28;25045;-75
2021/12/02 01:58:46;;;;;;;1.85;0.60;;;;;;;2.31;100.00;94238.19;5030336;28;24431;-75
2021/12/02 02:01:16;;;;;;;1.35;0.68;;;;;;;2.28;100.00;94240.91;5030288;28;24416;-74
2021/12/02 02:03:44;;;;;;;1.52;0.60;;;;;;;2.17;100.00;94238.94;5030618;28;24423;-74
2021/12/02 02:06:15;;;;;;;1.52;0.52;;;;;;;2.31;100.00;94234.81;5029798;28;24431;-75
2021/12/02 02:08:47;;;;;;;7.50;4.13;;;;;;;2.42;100.00;94224.81;5030053;28;24786;-75
2021/12/02 02:11:14;;;;;;;11.10;6.05;;;;;;;2.42;100.00;94227.38;5030250;28;24458;-73
2021/12/02 02:13:43;;;;;;;42.08;24.63;;;;;;;2.42;100.00;94227.38;5030179;28;24497;-74
2021/12/02 02:16:09;;;;;;;37.35;20.33;;;;;;;2.47;100.00;94235.59;5029789;28;24507;-75
2021/12/02 02:18:37;;;;;;;19.88;10.07;;;;;;;2.45;100.00;94237.44;5030088;28;24424;-74
2021/12/02 02:21:08;;;;;;;10.50;6.07;;;;;;;2.48;100.00;94233.84;5025590;28;24993;-75
2021/12/02 02:23:39;;;;;;;4.50;1.90;;;;;;;2.54;100.00;94226.69;5026600;28;24442;-74
2021/12/02 02:26:08;;;;;;;28.08;14.60;;;;;;;2.41;100.00;94226.56;5029459;28;24833;-75
2021/12/02 02:28:35;;;;;;;8.35;2.95;;;;;;;2.35;100.00;94228.63;5030045;28;24466;-75
2021/12/02 02:31:02;;;;;;;1.48;0.77;;;;;;;2.28;100.00;94237.53;5029977;28;24507;-74
2021/12/02 02:33:35;;;;;;;2.37;0.60;;;;;;;2.19;100.00;94243.97;5029708;28;24436;-74
2021/12/02 02:36:01;;;;;;;1.02;0.50;;;;;;;2.24;100.00;94236.06;5009809;28;24427;-74
2021/12/02 02:38:29;;;;;;;1.65;0.70;;;;;;;2.12;100.00;94230.72;5010196;28;24428;-74
2021/12/02 02:40:58;;;;;;;2.20;1.02;;;;;;;2.23;100.00;94224.19;5010209;28;24503;-74
2021/12/02 02:43:26;;;;;;;1.88;0.57;;;;;;;2.11;100.00;94231.63;5010166;28;24451;-74
2021/12/02 02:45:52;;;;;;;0.98;0.60;;;;;;;2.12;100.00;94228.16;5026838;28;24436;-75
2021/12/02 02:48:19;;;;;;;2.97;1.45;;;;;;;2.21;100.00;94231.09;5029462;28;24427;-74
2021/12/02 02:50:45;;;;;;;17.50;5.80;;;;;;;2.21;100.00;94234.47;5030010;28;24408;-74
2021/12/02 02:53:17;;;;;;;8.95;3.20;;;;;;;2.15;100.00;94235.66;5029965;28;24446;-75
2021/12/02 02:55:51;;;;;;;3.00;1.83;;;;;;;2.15;100.00;94224.59;5029450;28;24432;-74
2021/12/02 02:58:26;;;;;;;2.30;1.13;;;;;;;2.20;100.00;94222.63;5032179;28;24434;-75
2021/12/02 03:01:00;;;;;;;2.30;1.40;;;;;;;2.13;100.00;94231.53;5033011;28;24483;-75
2021/12/02 03:03:34;;;;;;;0.77;0.50;;;;;;;2.11;100.00;94231.63;5033396;28;24423;-75
2021/12/02 03:06:19;;;;;;;1.20;0.80;;;;;;;2.14;100.00;94231.44;5032958;28;24486;-75
2021/12/02 03:08:50;;;;;;;0.97;0.57;;;;;;;2.24;100.00;94230.94;5033297;28;24424;-74
2021/12/02 03:11:19;;;;;;;0.77;0.50;;;;;;;2.29;100.00;94228.94;5032927;28;24498;-75
2021/12/02 03:13:50;;;;;;;1.45;0.60;;;;;;;2.28;100.00;94217.91;5033094;28;24798;-75
2021/12/02 03:19:01;;;;;;;7.23;3.70;;;;;;;2.16;100.00;94221.16;5032894;28;24407;-75
2021/12/02 03:21:28;;;;;;;5.63;3.60;;;;;;;2.17;100.00;94225.34;5032732;28;24427;-74
2021/12/02 03:23:57;;;;;;;6.53;4.00;;;;;;;2.14;100.00;94218.66;5032878;28;24507;-74
2021/12/02 03:26:26;;;;;;;3.80;2.60;;;;;;;2.02;100.00;94216.78;5032348;28;24420;-75
2021/12/02 03:28:53;;;;;;;3.97;0.90;;;;;;;2.00;100.00;94210.91;5032754;28;24431;-75
2021/12/02 03:31:20;;;;;;;2.30;1.10;;;;;;;2.02;100.00;94203.19;5032710;28;24790;-74
2021/12/02 03:33:47;;;;;;;3.95;1.85;;;;;;;2.04;100.00;94198.81;5032653;28;24825;-74
2021/12/02 03:36:16;;;;;;;1.30;0.60;;;;;;;2.07;100.00;94196.91;5032043;28;24790;-74
2021/12/02 03:38:42;;;;;;;3.50;0.70;;;;;;;1.99;100.00;94206.72;5032426;28;25091;-73
2021/12/02 03:41:09;;;;;;;0.93;0.40;;;;;;;2.03;100.00;94209.94;5032363;28;24442;-74
2021/12/02 03:43:38;;;;;;;2.40;0.57;;;;;;;2.01;100.00;94209.22;5032709;28;24427;-74
2021/12/02 03:46:06;;;;;;;1.27;0.57;;;;;;;2.12;100.00;94206.91;5032232;28;24416;-74
2021/12/02 03:48:33;;;;;;;1.67;0.77;;;;;;;2.10;100.00;94203.59;5032338;28;24490;-75
2021/12/02 03:50:59;;;;;;;1.37;0.53;;;;;;;2.24;100.00;94200.28;5032245;28;25122;-74
2021/12/02 03:53:26;;;;;;;0.90;0.45;;;;;;;2.21;100.00;94200.44;5032429;28;24423;-74
2021/12/02 03:55:52;;;;;;;1.75;0.55;;;;;;;2.21;100.00;94192.78;5031978;28;24436;-75
2021/12/02 03:58:19;;;;;;;1.23;0.50;;;;;;;2.21;100.00;94195.34;5032254;28;24840;-74
2021/12/02 04:00:46;;;;;;;1.08;0.45;;;;;;;2.18;100.00;94204.81;5031995;28;24470;-74
2021/12/02 04:03:13;;;;;;;4.55;0.50;;;;;;;2.09;100.00;94213.00;5031935;28;24426;-74
2021/12/02 04:05:39;;;;;;;1.17;0.60;;;;;;;2.10;100.00;94216.38;5032013;28;24455;-75
2021/12/02 04:08:10;;;;;;;3.22;2.28;;;;;;;2.07;100.00;94208.88;5032039;28;24420;-75
2021/12/02 04:10:37;;;;;;;3.40;1.80;;;;;;;2.06;100.00;94208.03;5031497;28;24432;-75
2021/12/02 04:13:08;;;;;;;5.28;2.40;;;;;;;2.00;100.00;94208.38;5031679;28;24957;-74
2021/12/02 04:15:37;;;;;;;7.75;2.83;;;;;;;2.00;100.00;94208.38;5031593;28;24527;-75
2021/12/02 04:18:04;;;;;;;17.85;10.85;;;;;;;1.99;100.00;94211.00;5031955;28;24435;-75
2021/12/02 04:20:31;;;;;;;18.45;9.93;;;;;;;2.01;100.00;94209.22;5031569;28;24995;-75
2021/12/02 04:22:58;;;;;;;27.20;15.52;;;;;;;2.00;100.00;94208.38;5031753;28;24422;-73
2021/12/02 04:25:26;;;;;;;21.57;9.10;;;;;;;2.01;100.00;94210.03;5031149;28;24435;-75
2021/12/02 04:27:54;;;;;;;22.23;10.73;;;;;;;1.99;100.00;94205.91;5032071;28;24423;-73
2021/12/02 04:30:22;;;;;;;9.70;5.57;;;;;;;1.95;100.00;94210.34;5031449;28;24869;-73
2021/12/02 04:32:49;;;;;;;10.57;5.85;;;;;;;1.98;100.00;94210.19;5031683;28;24433;-73
2021/12/02 04:35:17;;;;;;;5.15;4.28;;;;;;;2.00;100.00;94216.03;5031208;28;24428;-73
2021/12/02 04:37:44;;;;;;;4.45;3.00;;;;;;;2.09;100.00;94217.28;5031331;28;24431;-74
2021/12/02 04:40:15;;;;;;;2.53;1.70;;;;;;;2.09;100.00;94213.00;5031316;28;24446;-73
2021/12/02 04:42:42;;;;;;;6.20;2.78;;;;;;;2.17;100.00;94207.47;5031188;28;24889;-73
2021/12/02 04:45:10;;;;;;;4.20;2.05;;;;;;;2.17;100.00;94200.63;5031087;28;24439;-73
2021/12/02 04:47:36;;;;;;;8.25;3.90;;;;;;;2.10;100.00;94204.41;5031350;28;24419;-73
2021/12/02 04:50:03;;;;;;;6.60;2.53;;;;;;;2.17;100.00;94208.28;5031225;28;24424;-73
2021/12/02 04:52:31;;;;;;;16.45;3.67;;;;;;;2.07;100.00;94213.97;5031216;28;25068;-73
2021/12/02 04:54:58;;;;;;;8.65;4.85;;;;;;;2.10;100.00;94206.16;5030736;28;24438;-73
2021/12/02 04:57:25;;;;;;;6.88;3.15;;;;;;;2.01;100.00;94209.22;5030836;28;24969;-74
2021/12/02 04:59:51;;;;;;;2.35;1.58;;;;;;;2.02;100.00;94213.41;5031128;28;24447;-73
2021/12/02 05:02:18;;;;;;;4.90;3.10;;;;;;;2.03;100.00;94200.53;5031246;28;24782;-73
2021/12/02 05:04:44;;;;;;;3.38;1.50;;;;;;;2.01;100.00;94193.91;5030930;28;24882;-73
2021/12/02 05:07:11;;;;;;;2.30;1.15;;;;;;;2.01;100.00;94193.91;5030688;28;24424;-74
2021/12/02 05:09:38;;;;;;;3.85;2.17;;;;;;;1.85;100.00;94202.34;5028984;28;24494;-73
2021/12/02 05:12:06;;;;;;;8.98;3.90;;;;;;;1.85;100.00;94204.09;5030494;28;24427;-73
2021/12/02 05:14:32;;;;;;;7.15;2.53;;;;;;;1.82;100.00;94201.72;5030940;28;24435;-73
2021/12/02 05:16:59;;;;;;;7.03;5.78;;;;;;;1.81;100.00;94197.50;5030829;28;24419;-74
2021/12/02 05:19:25;;;;;;;3.45;2.83;;;;;;;1.83;100.00;94201.63;5030844;28;24423;-74
2021/12/02 05:21:52;;;;;;;18.83;12.45;;;;;;;1.84;100.00;94202.47;5030636;28;24451;-75
2021/12/02 05:24:18;;;;;;;5.15;3.42;;;;;;;1.76;100.00;94202.06;5030484;28;24800;-74
2021/12/02 05:26:46;;;;;;;3.47;3.17;;;;;;;1.76;100.00;94202.88;5030044;28;24451;-74
2021/12/02 05:29:12;;;;;;;2.70;1.70;;;;;;;1.74;100.00;94196.19;5030738;28;24427;-74
2021/12/02 05:31:39;;;;;;;1.95;1.25;;;;;;;1.67;100.00;94199.09;5030829;28;24415;-74
2021/12/02 05:34:06;;;;;;;1.55;0.90;;;;;;;1.75;100.00;94197.84;5030572;28;24424;-73
2021/12/02 05:36:32;;;;;;;3.63;1.10;;;;;;;1.72;100.00;94203.13;5030225;28;24489;-75
2021/12/02 05:38:58;;;;;;;2.05;1.20;;;;;;;1.67;100.00;94204.19;5030400;28;24825;-74
2021/12/02 05:41:25;;;;;;;2.22;1.58;;;;;;;1.64;100.00;94206.09;5030652;28;24447;-74
2021/12/02 05:43:53;;;;;;;1.73;1.10;;;;;;;1.63;100.00;94199.31;5030610;28;24423;-74
2021/12/02 05:46:19;;;;;;;3.00;1.05;;;;;;;1.49;100.00;94206.91;5030261;28;24431;-73
2021/12/02 05:48:46;;;;;;;1.60;0.93;;;;;;;1.51;100.00;94203.34;5030435;28;24428;-74
2021/12/02 05:51:12;;;;;;;1.25;0.75;;;;;;;1.46;100.00;94202.75;5030341;28;24957;-74
2021/12/02 05:53:38;;;;;;;0.98;0.60;;;;;;;1.48;100.00;94200.13;5025216;28;24432;-73
2021/12/02 05:56:05;;;;;;;0.98;0.80;;;;;;;1.48;100.00;94190.75;5026839;28;24452;-74
2021/12/02 05:58:32;;;;;;;1.50;1.27;;;;;;;1.58;100.00;94203.84;5022242;28;24495;-74
2021/12/02 06:01:00;;;;;;;1.45;0.93;;;;;;;1.57;100.00;94195.38;5029998;28;24455;-75
2021/12/02 06:03:26;;;;;;;0.55;0.40;;;;;;;1.42;100.00;94186.78;5030190;28;24988;-75
2021/12/02 06:05:53;;;;;;;0.90;0.60;;;;;;;1.46;100.00;94187.47;5029758;28;24972;-75
2021/12/02 06:08:19;;;;;;;7.22;0.80;;;;;;;1.40;100.00;94186.03;5030044;28;24786;-75
2021/12/02 06:10:46;;;;;;;0.87;0.60;;;;;;;1.41;100.00;94184.34;5030213;28;24474;-75
2021/12/02 06:13:13;;;;;;;1.40;0.75;;;;;;;1.45;100.00;94180.72;5030149;28;24442;-73
2021/12/02 06:15:39;;;;;;;0.98;0.70;;;;;;;1.47;100.00;94173.78;5029814;28;24426;-73
2021/12/02 06:18:08;;;;;;;1.52;0.93;;;;;;;1.44;100.00;94174.75;5027920;28;24992;-73
2021/12/02 06:20:35;;;;;;;0.80;0.70;;;;;;;1.46;100.00;94172.16;5029813;28;24497;-74
2021/12/02 06:23:01;;;;;;;1.83;1.40;;;;;;;1.45;100.00;94171.34;5030418;28;24436;-73
2021/12/02 06:25:46;;;;;;;3.13;1.88;;;;;;;1.34;100.00;94172.81;5029512;28;24997;-73
2021/12/02 06:28:13;;;;;;;12.02;5.93;;;;;;;1.41;100.00;94184.34;5030483;28;24446;-74
2021/12/02 06:30:39;;;;;;;14.57;7.90;;;;;;;1.34;100.00;94185.56;5029970;28;24434;-73
2021/12/02 06:33:07;;;;;;;9.93;6.28;;;;;;;1.34;100.00;94185.56;5032163;28;24420;-73
2021/12/02 06:35:34;;;;;;;8.70;4.10;;;;;;;1.39;100.00;94186.94;5033174;28;24515;-73
2021/12/02 06:38:00;;;;;;;2.45;2.17;;;;;;;1.35;100.00;94192.31;5033658;28;24424;-73
2021/12/02 06:40:28;;;;;;;4.50;3.55;;;;;;;1.32;100.00;94187.34;5031347;28;24498;-73
2021/12/02 06:42:54;;;;;;;2.72;1.98;;;;;;;1.43;100.00;94187.63;5025608;28;24978;-73
2021/12/02 06:45:21;;;;;;;4.13;1.17;;;;;;;1.52;100.00;94179.50;5033037;28;24435;-73
2021/12/02 06:47:50;;;;;;;0.75;0.60;;;;;;;1.53;100.00;94183.69;5029203;28;24810;-73
2021/12/02 06:50:20;;;;;;;1.75;1.10;;;;;;;1.47;100.00;94189.09;5028912;28;24993;-74
2021/12/02 06:52:48;;;;;;;1.10;0.98;;;;;;;1.55;100.00;94181.84;5033643;28;24435;-73
2021/12/02 06:55:15;;;;;;;1.02;0.60;;;;;;;1.52;100.00;94188.84;5033882;28;24440;-73
2021/12/02 06:57:42;;;;;;;2.70;0.85;;;;;;;1.59;100.00;94191.00;5033960;28;24435;-74
2021/12/02 07:00:13;;;;;;;1.27;0.70;;;;;;;1.66;100.00;94191.50;5032727;28;24794;-74
2021/12/02 07:02:40;;;;;;;2.30;0.60;;;;;;;1.57;100.00;94189.44;5032345;28;24489;-75
2021/12/02 07:05:10;;;;;;;1.65;1.27;;;;;;;1.55;100.00;94184.41;5032493;28;24834;-74
2021/12/02 07:07:38;;;;;;;1.40;0.90;;;;;;;1.50;100.00;94185.56;5031014;28;25004;-74
2021/12/02 07:10:06;;;;;;;6.15;0.93;;;;;;;1.47;100.00;94186.53;5033085;28;24439;-74
2021/12/02 07:12:34;;;;;;;4.28;2.75;;;;;;;1.58;100.00;94186.81;5032518;28;24415;-74
2021/12/02 07:15:05;;;;;;;5.15;2.60;;;;;;;1.60;100.00;94187.56;5032515;28;24962;-73
2021/12/02 07:17:33;;;;;;;12.70;7.90;;;;;;;1.59;100.00;94188.44;5032900;28;24985;-73
2021/12/02 07:20:00;;;;;;;8.85;6.47;;;;;;;1.69;100.00;94189.59;5032997;28;24424;-73
2021/12/02 07:22:26;;;;;;;3.97;2.53;;;;;;;1.78;100.00;94185.75;5032026;28;24559;-73
2021/12/02 07:24:54;;;;;;;1.43;1.20;;;;;;;1.77;100.00;94189.19;5032565;28;24427;-73
2021/12/02 07:27:21;;;;;;;1.40;1.30;;;;;;;1.75;100.00;94193.56;5032597;28;24420;-73
2021/12/02 07:29:47;;;;;;;1.92;1.50;;;;;;;1.73;100.00;94197.09;5032759;28;24416;-73
2021/12/02 07:32:14;;;;;;;1.50;1.30;;;;;;;1.65;100.00;94198.34;5033081;28;24755;-72
2021/12/02 07:34:45;;;;;;;1.88;1.08;;;;;;;1.66;100.00;94192.31;5032884;28;24423;-73
2021/12/02 07:37:14;;;;;;;2.83;0.80;;;;;;;1.63;100.00;94201.88;5032307;28;24949;-73
2021/12/02 07:39:41;;;;;;;2.58;1.10;;;;;;;1.68;100.00;94202.47;5032620;28;24523;-74
2021/12/02 07:42:09;;;;;;;1.80;0.90;;;;;;;1.80;100.00;94211.19;5032198;28;24491;-73
2021/12/02 07:44:36;;;;;;;1.00;0.80;;;;;;;1.89;100.00;94210.69;5031455;28;24426;-73
2021/12/02 07:47:04;;;;;;;1.35;0.70;;;;;;;1.76;100.00;94214.81;5032087;28;24972;-74
2021/12/02 07:49:31;;;;;;;2.55;0.90;;;;;;;1.72;100.00;94211.59;5032490;28;24412;-72
2021/12/02 07:52:01;;;;;;;1.23;0.75;;;;;;;1.70;100.00;94211.66;5032445;28;24443;-73
2021/12/02 07:54:31;;;;;;;1.00;0.80;;;;;;;1.75;100.00;94213.16;5032198;28;24423;-73
2021/12/02 07:56:58;;;;;;;1.33;0.80;;;;;;;1.86;100.00;94206.59;5032302;28;24983;-73
2021/12/02 07:59:26;;;;;;;1.23;0.85;;;;;;;2.07;100.00;94213.97;5032925;28;24435;-73
2021/12/02 08:01:55;;;;;;;1.40;0.85;;;;;;;2.01;100.00;94211.78;5032317;28;24447;-73
2021/12/02 08:04:22;;;;;;;1.13;0.82;;;;;;;2.03;100.00;94215.88;5032489;28;24431;-73
2021/12/02 08:06:48;;;;;;;0.90;0.70;;;;;;;2.21;100.00;94215.78;5032330;28;24424;-73
2021/12/02 08:09:15;;;;;;;1.50;1.00;;;;;;;2.42;100.00;94217.97;5032637;28;25011;-73
2021/12/02 08:11:42;;;;;;;1.13;0.70;;;;;;;2.53;100.00;94221.66;5032605;28;24953;-73
2021/12/02 08:14:13;;;;;;;2.50;1.20;;;;;;;2.61;100.00;94219.50;5032614;28;24427;-73
2021/12/02 08:16:41;;;;;;;2.50;1.00;;;;;;;2.75;100.00;94221.28;5032142;28;24475;-73
2021/12/02 08:19:08;;;;;;;1.15;0.77;;;;;;;2.76;100.00;94223.72;5032829;28;24513;-73
2021/12/02 08:21:34;;;;;;;1.40;0.87;;;;;;;2.72;100.00;94221.44;5032149;28;24479;-73
2021/12/02 08:24:01;;;;;;;1.98;1.17;;;;;;;2.81;100.00;94219.16;5032657;28;24451;-73
2021/12/02 08:26:27;;;;;;;2.95;1.38;;;;;;;2.81;100.00;94221.72;5032135;28;24996;-73
2021/12/02 08:28:54;;;;;;;3.17;1.00;;;;;;;2.80;100.00;94226.94;5032390;28;24427;-73
2021/12/02 08:31:20;;;;;;;2.17;1.10;;;;;;;2.81;100.00;94221.72;5027688;28;24424;-73
2021/12/02 08:33:49;;;;;;;1.13;0.77;;;;;;;2.65;100.00;94224.34;5032777;28;24427;-73
2021/12/02 08:36:15;;;;;;;1.15;0.95;;;;;;;2.71;100.00;94215.50;5032064;28;24980;-73
2021/12/02 08:38:44;;;;;;;2.67;1.67;;;;;;;3.07;100.00;94219.41;5018498;28;24499;-74
2021/12/02 08:41:12;;;;;;;1.77;1.05;;;;;;;2.87;100.00;94228.22;5011728;28;24540;-74
2021/12/02 08:43:39;;;;;;;1.63;1.00;;;;;;;2.71;100.00;94235.97;5024252;28;25037;-74
2021/12/02 08:46:05;;;;;;;2.47;1.20;;;;;;;2.62;100.00;94232.19;5030814;28;25072;-75
2021/12/02 08:48:32;;;;;;;1.63;1.00;;;;;;;2.58;100.00;94228.16;5030565;28;25015;-74
2021/12/02 08:50:59;;;;;;;1.20;0.90;;;;;;;2.67;100.00;94230.19;5037952;28;24431;-73
2021/12/02 08:53:26;;;;;;;1.13;0.80;;;;;;;2.48;100.00;94232.13;5051171;28;24423;-74
2021/12/02 08:55:52;;;;;;;2.28;1.10;;;;;;;2.52;100.00;94225.97;5050381;28;24431;-75
2021/12/02 08:58:19;;;;;;;2.83;1.50;;;;;;;2.58;100.00;94229.88;5029940;28;24801;-73
2021/12/02 09:00:46;;;;;;;3.05;1.38;;;;;;;2.66;100.00;94220.03;5023710;28;24786;-73
2021/12/02 09:03:15;;;;;;;1.90;1.00;;;;;;;2.54;100.00;94224.13;5030833;28;24420;-73
2021/12/02 09:05:43;;;;;;;1.77;1.40;;;;;;;2.53;100.00;94226.78;5023804;28;25044;-73
2021/12/02 09:08:11;;;;;;;4.45;1.00;;;;;;;2.50;100.00;94214.97;5012978;28;24427;-73
2021/12/02 09:10:38;;;;;;;1.73;1.10;;;;;;;2.57;100.00;94210.34;5012617;28;24510;-73
2021/12/02 09:13:07;;;;;;;4.65;0.90;;;;;;;2.76;100.00;94217.81;5019191;28;24973;-73
2021/12/02 09:15:35;;;;;;;1.30;0.90;;;;;;;3.07;100.00;94207.44;5030684;28;24967;-73
2021/12/02 09:18:01;;;;;;;1.55;0.90;;;;;;;3.10;100.00;94220.03;5030765;28;24428;-73
2021/12/02 09:20:28;;;;;;;1.80;1.20;;;;;;;3.36;100.00;94210.84;5030876;28;24427;-73
2021/12/02 09:22:54;;;;;;;2.25;1.17;;;;;;;3.76;100.00;94223.00;5030770;28;24447;-73
2021/12/02 09:25:22;;;;;;;2.90;1.00;;;;;;;3.73;100.00;94223.16;5030088;28;24829;-73
2021/12/02 09:27:49;;;;;;;1.90;1.00;;;;;;;3.75;100.00;94223.91;5030357;28;24494;-73
2021/12/02 09:30:17;;;;;;;1.77;1.00;;;;;;;3.55;100.00;94231.03;5031835;28;24427;-73
2021/12/02 09:32:44;;;;;;;2.35;1.10;;;;;;;3.32;100.00;94234.16;5050510;28;24422;-73
2021/12/02 09:35:12;;;;;;;1.70;0.95;;;;;;;3.14;100.00;94236.03;5050139;28;24435;-73
2021/12/02 09:37:39;;;;;;;1.93;1.00;;;;;;;3.03;100.00;94252.00;5039961;28;24436;-73
2021/12/02 09:40:09;;;;;;;2.60;1.15;;;;;;;2.82;100.00;94254.06;5010850;28;24424;-73
2021/12/02 09:42:37;;;;;;;1.63;1.02;;;;;;;2.71;100.00;94253.84;5027714;28;24452;-73
2021/12/02 09:45:04;;;;;;;3.05;1.05;;;;;;;2.63;100.00;94256.84;5010613;28;24428;-73
2021/12/02 09:47:34;;;;;;;1.23;1.00;;;;;;;2.67;100.00;94263.44;5010806;28;24425;-73
2021/12/02 09:50:05;;;;;;;2.60;1.70;;;;;;;2.60;100.00;94259.56;5010856;28;24425;-73
2021/12/02 09:52:35;;;;;;;3.30;2.40;;;;;;;2.49;100.00;94263.63;5010522;28;24991;-73
2021/12/02 09:55:05;;;;;;;2.60;1.23;;;;;;;2.32;100.00;94262.81;5010335;28;24447;-73
2021/12/02 09:57:38;;;;;;;2.27;1.40;;;;;;;2.22;100.00;94265.94;5010760;28;24404;-73
2021/12/02 10:00:15;;;;;;;1.60;1.20;;;;;;;2.06;100.00;94269.34;5010583;28;24973;-73
2021/12/02 10:02:50;;;;;;;2.03;1.27;;;;;;;2.14;100.00;94274.03;5010607;28;24531;-72
2021/12/02 10:05:27;;;;;;;0.73;0.50;;;;;;;1.94;100.00;94275.91;5010213;28;24852;-73
2021/12/02 10:07:56;;;;;;;0.80;0.50;;;;;;;1.88;100.00;94275.41;5012468;28;24519;-73
2021/12/02 10:10:30;;;;;;;1.05;0.40;;;;;;;1.84;100.00;94269.66;5014752;28;24527;-73
2021/12/02 10:13:15;;;;;;;0.90;0.70;;;;;;;1.71;100.00;94271.22;5014623;28;24508;-73
2021/12/02 10:15:52;;;;;;;2.08;1.73;;;;;;;1.79;100.00;94271.63;5014040;28;24802;-73
2021/12/02 10:18:23;;;;;;;3.80;2.35;;;;;;;1.82;100.00;94268.09;5014216;28;24478;-73
2021/12/02 10:20:51;;;;;;;5.65;3.25;;;;;;;1.75;100.00;94267.59;5014643;28;24475;-73
2021/12/02 10:23:22;;;;;;;1.13;0.77;;;;;;;1.63;100.00;94271.63;5014376;28;24799;-73
2021/12/02 10:25:58;;;;;;;0.30;0.20;;;;;;;1.55;100.00;94270.34;5013692;28;24950;-74
2021/12/02 10:28:28;;;;;;;0.73;0.40;;;;;;;1.45;100.00;94262.34;5014208;28;24811;-74
2021/12/02 10:31:00;;;;;;;0.70;0.47;;;;;;;1.38;100.00;94263.56;5014099;28;24783;-74
2021/12/02 10:33:32;;;;;;;0.80;0.30;;;;;;;1.43;100.00;94259.03;5014436;28;24492;-74
2021/12/02 10:35:59;;;;;;;0.40;0.30;;;;;;;1.39;100.00;94258.38;5013673;28;25070;-74
2021/12/02 10:38:34;;;;;;;0.30;0.22;;;;;;;1.47;100.00;94267.38;5014079;28;24424;-74
2021/12/02 10:41:01;;;;;;;2.72;1.25;;;;;;;1.43;100.00;94267.53;5014488;28;24444;-74
2021/12/02 10:43:28;;;;;;;1.48;0.90;;;;;;;1.52;100.00;94271.34;5013640;28;24451;-74
2021/12/02 10:46:13;;;;;;;0.90;0.60;;;;;;;1.55;100.00;94265.25;5013451;28;25027;-74
2021/12/02 10:48:46;;;;;;;0.40;0.30;;;;;;;1.70;100.00;94272.09;5013783;28;24954;-75
2021/12/02 10:51:40;;;;;;;0.52;0.40;;;;;;;1.65;100.00;94268.97;5013794;28;24941;-75
2021/12/02 10:54:12;;;;;;;0.43;0.40;;;;;;;1.61;100.00;94270.84;5014065;28;24524;-74
2021/12/02 10:56:41;;;;;;;0.85;0.50;;;;;;;1.60;100.00;94270.94;5013634;28;24435;-74
2021/12/02 10:59:33;;;;;;;0.35;0.28;;;;;;;1.91;100.00;94263.31;5013732;28;24981;-74
2021/12/02 11:02:04;;;;;;;0.20;0.15;;;;;;;1.66;100.00;94270.59;5013354;28;24476;-74
2021/12/02 11:04:38;;;;;;;0.10;0.10;;;;;;;1.73;100.00;94266.00;5013526;28;24421;-74
2021/12/02 11:07:09;;;;;;;0.20;0.10;;;;;;;1.76;100.00;94260.75;5013358;28;24424;-75
2021/12/02 11:09:38;;;;;;;0.40;0.20;;;;;;;1.64;100.00;94262.22;5013553;28;24965;-75
2021/12/02 11:12:08;;;;;;;0.30;0.20;;;;;;;1.63;100.00;94268.22;5013332;28;24946;-74
2021/12/02 11:14:35;;;;;;;0.10;0.10;;;;;;;1.42;100.00;94273.53;5013199;28;24528;-75
2021/12/02 11:17:09;;;;;;;0.47;0.30;;;;;;;1.39;100.00;94273.69;5013337;28;24477;-74
2021/12/02 11:19:35;;;;;;;0.50;0.10;;;;;;;1.47;100.00;94265.63;5013227;28;24456;-74
2021/12/02 11:22:07;;;;;;;0.45;0.25;;;;;;;1.43;100.00;94270.06;5013453;28;24819;-73
2021/12/02 11:24:34;;;;;;;0.52;0.38;;;;;;;1.58;100.00;94267.63;5013022;28;24783;-73
2021/12/02 11:27:10;;;;;;;0.30;0.10;;;;;;;1.69;100.00;94257.69;5012797;28;24988;-74
2021/12/02 11:29:54;;;;;;;0.50;0.10;;;;;;;1.62;100.00;94261.47;5013329;28;24425;-74
2021/12/02 11:32:30;;;;;;;0.45;0.40;;;;;;;1.71;100.00;94258.44;5013207;28;24416;-74
2021/12/02 11:35:16;;;;;;;0.30;0.30;;;;;;;1.58;100.00;94263.34;5012839;28;24427;-74
2021/12/02 11:37:47;;;;;;;0.30;0.30;;;;;;;1.46;100.00;94264.00;5000512;28;24440;-74
2021/12/02 11:40:19;;;;;;;1.27;0.47;;;;;;;1.44;100.00;94265.78;5012543;28;21319;-74
2021/12/02 11:42:47;;;;;;;0.35;0.28;;;;;;;1.34;100.00;94257.81;5012543;28;24981;-75
2021/12/02 11:45:16;;;;;;;2.50;0.40;;;;;;;1.28;100.00;94255.56;5012679;28;24527;-74